sensor_id;sensor_type;location;lat;lon;timestamp;temperature;humidity
29777;DHT22;16677;52.224;7.484;2023-08-06T00:01:16;15.20;99.90
29777;DHT22;16677;52.224;7.484;2023-08-06T00:03:45;15.10;99.90
29777;DHT22;16677;52.224;7.484;2023-08-06T00:06:13;15.10;99.90
29777;DHT22;16677;52.224;7.484;2023-08-06T00:08:40;15.10;99.90
29777;DHT22;16677;52.224;7.484;2023-08-06T00:11:07;15.10;99.90
29777;DHT22;16677;52.224;7.484;2023-08-06T00:13:34;15.00;99.90
29777;DHT22;16677;52.224;7.484;2023-08-06T00:16:12;14.90;99.90
29777;DHT22;16677;52.224;7.484;2023-08-06T00:18:41;15.10;99.90
29777;DHT22;16677;52.224;7.484;2023-08-06T00:21:09;15.00;99.90
29777;DHT22;16677;52.224;7.484;2023-08-06T00:23:36;15.00;99.90
29777;DHT22;16677;52.224;7.484;2023-08-06T00:26:03;15.10;99.90
29777;DHT22;16677;52.224;7.484;2023-08-06T00:28:30;15.00;99.90
29777;DHT22;16677;52.224;7.484;2023-08-06T00:30:58;15.10;99.90
29777;DHT22;16677;52.224;7.484;2023-08-06T00:33:25;15.10;99.90
29777;DHT22;16677;52.224;7.484;2023-08-06T00:35:52;15.00;99.90
29777;DHT22;16677;52.224;7.484;2023-08-06T00:38:19;14.90;99.90
29777;DHT22;16677;52.224;7.484;2023-08-06T00:40:47;14.90;99.90
29777;DHT22;16677;52.224;7.484;2023-08-06T00:43:14;14.90;99.90
29777;DHT22;16677;52.224;7.484;2023-08-06T00:45:41;14.90;99.90
29777;DHT22;16677;52.224;7.484;2023-08-06T00:48:08;14.90;99.90
29777;DHT22;16677;52.224;7.484;2023-08-06T00:50:36;14.90;99.90
29777;DHT22;16677;52.224;7.484;2023-08-06T00:53:03;14.90;99.90
29777;DHT22;16677;52.224;7.484;2023-08-06T00:55:30;14.80;99.90
29777;DHT22;16677;52.224;7.484;2023-08-06T00:57:57;14.80;99.90
29777;DHT22;16677;52.224;7.484;2023-08-06T01:00:25;14.80;99.90
29777;DHT22;16677;52.224;7.484;2023-08-06T01:05:21;14.80;99.90
29777;DHT22;16677;52.224;7.484;2023-08-06T01:13:49;14.90;99.90
29777;DHT22;16677;52.224;7.484;2023-08-06T01:16:20;14.90;99.90
29777;DHT22;16677;52.224;7.484;2023-08-06T01:18:48;15.00;99.90
29777;DHT22;16677;52.224;7.484;2023-08-06T01:21:17;15.00;99.90
29777;DHT22;16677;52.224;7.484;2023-08-06T01:23:46;15.10;99.90
29777;DHT22;16677;52.224;7.484;2023-08-06T01:26:24;15.10;99.90
29777;DHT22;16677;52.224;7.484;2023-08-06T01:29:11;15.10;99.90
29777;DHT22;16677;52.224;7.484;2023-08-06T01:31:44;15.10;99.90
29777;DHT22;16677;52.224;7.484;2023-08-06T01:34:24;15.00;99.90
29777;DHT22;16677;52.224;7.484;2023-08-06T01:36:53;15.00;99.90
29777;DHT22;16677;52.224;7.484;2023-08-06T01:39:21;15.00;99.90
29777;DHT22;16677;52.224;7.484;2023-08-06T01:41:48;15.00;99.90
29777;DHT22;16677;52.224;7.484;2023-08-06T01:44:16;15.10;99.90
29777;DHT22;16677;52.224;7.484;2023-08-06T01:46:44;15.10;99.90
29777;DHT22;16677;52.224;7.484;2023-08-06T01:49:11;15.10;99.90
29777;DHT22;16677;52.224;7.484;2023-08-06T01:51:38;15.10;99.90
29777;DHT22;16677;52.224;7.484;2023-08-06T01:54:05;15.00;99.90
29777;DHT22;16677;52.224;7.484;2023-08-06T01:56:33;15.10;99.90
29777;DHT22;16677;52.224;7.484;2023-08-06T01:59:00;15.00;99.90
29777;DHT22;16677;52.224;7.484;2023-08-06T02:01:30;15.00;99.90
29777;DHT22;16677;52.224;7.484;2023-08-06T02:03:58;15.00;99.90
29777;DHT22;16677;52.224;7.484;2023-08-06T02:06:25;15.00;99.90
29777;DHT22;16677;52.224;7.484;2023-08-06T02:08:52;15.00;99.90
29777;DHT22;16677;52.224;7.484;2023-08-06T02:11:19;15.00;99.90
29777;DHT22;16677;52.224;7.484;2023-08-06T02:13:46;15.00;99.90
29777;DHT22;16677;52.224;7.484;2023-08-06T02:16:13;15.00;99.90
29777;DHT22;16677;52.224;7.484;2023-08-06T02:18:41;14.80;99.90
29777;DHT22;16677;52.224;7.484;2023-08-06T02:21:08;15.00;99.90
29777;DHT22;16677;52.224;7.484;2023-08-06T02:23:35;14.90;99.90
29777;DHT22;16677;52.224;7.484;2023-08-06T02:26:03;14.90;99.90
29777;DHT22;16677;52.224;7.484;2023-08-06T02:28:31;14.90;99.90
29777;DHT22;16677;52.224;7.484;2023-08-06T02:30:59;14.90;99.90
29777;DHT22;16677;52.224;7.484;2023-08-06T02:33:26;14.90;99.90
29777;DHT22;16677;52.224;7.484;2023-08-06T02:36:03;14.90;99.90
29777;DHT22;16677;52.224;7.484;2023-08-06T02:38:31;14.80;99.90
29777;DHT22;16677;52.224;7.484;2023-08-06T02:41:02;14.80;99.90
29777;DHT22;16677;52.224;7.484;2023-08-06T02:43:30;14.70;99.90
29777;DHT22;16677;52.224;7.484;2023-08-06T02:45:58;14.70;99.90
29777;DHT22;16677;52.224;7.484;2023-08-06T02:48:26;14.70;99.90
29777;DHT22;16677;52.224;7.484;2023-08-06T02:50:57;14.60;99.90
29777;DHT22;16677;52.224;7.484;2023-08-06T02:53:26;14.60;99.90
29777;DHT22;16677;52.224;7.484;2023-08-06T02:55:53;14.50;99.90
29777;DHT22;16677;52.224;7.484;2023-08-06T02:58:22;14.50;99.90
29777;DHT22;16677;52.224;7.484;2023-08-06T03:01:02;14.40;99.90
29777;DHT22;16677;52.224;7.484;2023-08-06T03:03:31;14.50;99.90
29777;DHT22;16677;52.224;7.484;2023-08-06T03:05:59;14.40;99.90
29777;DHT22;16677;52.224;7.484;2023-08-06T03:08:28;14.50;99.90
29777;DHT22;16677;52.224;7.484;2023-08-06T03:10:55;14.60;99.90
29777;DHT22;16677;52.224;7.484;2023-08-06T03:13:22;14.50;99.90
29777;DHT22;16677;52.224;7.484;2023-08-06T03:15:54;14.50;99.90
29777;DHT22;16677;52.224;7.484;2023-08-06T03:18:25;14.50;99.90
29777;DHT22;16677;52.224;7.484;2023-08-06T03:20:55;14.50;99.90
29777;DHT22;16677;52.224;7.484;2023-08-06T03:23:23;14.50;99.90
29777;DHT22;16677;52.224;7.484;2023-08-06T03:25:50;14.60;99.90
29777;DHT22;16677;52.224;7.484;2023-08-06T03:28:18;14.60;99.90
29777;DHT22;16677;52.224;7.484;2023-08-06T03:30:45;14.60;99.90
29777;DHT22;16677;52.224;7.484;2023-08-06T03:33:12;14.80;99.90
29777;DHT22;16677;52.224;7.484;2023-08-06T03:35:40;14.70;99.90
29777;DHT22;16677;52.224;7.484;2023-08-06T03:38:07;14.70;99.90
29777;DHT22;16677;52.224;7.484;2023-08-06T03:40:35;14.80;99.90
29777;DHT22;16677;52.224;7.484;2023-08-06T03:43:03;14.80;99.90
29777;DHT22;16677;52.224;7.484;2023-08-06T03:45:30;14.90;99.90
29777;DHT22;16677;52.224;7.484;2023-08-06T03:47:57;14.90;99.90
29777;DHT22;16677;52.224;7.484;2023-08-06T03:50:24;14.80;99.90
29777;DHT22;16677;52.224;7.484;2023-08-06T03:52:51;14.90;99.90
29777;DHT22;16677;52.224;7.484;2023-08-06T03:55:18;14.90;99.90
29777;DHT22;16677;52.224;7.484;2023-08-06T03:57:46;14.80;99.90
29777;DHT22;16677;52.224;7.484;2023-08-06T04:00:13;14.80;99.90
29777;DHT22;16677;52.224;7.484;2023-08-06T04:02:40;14.90;99.90
29777;DHT22;16677;52.224;7.484;2023-08-06T04:05:08;14.90;99.90
29777;DHT22;16677;52.224;7.484;2023-08-06T04:07:35;14.80;99.90
29777;DHT22;16677;52.224;7.484;2023-08-06T04:10:04;14.80;99.90
29777;DHT22;16677;52.224;7.484;2023-08-06T04:12:32;14.90;99.90
29777;DHT22;16677;52.224;7.484;2023-08-06T04:15:03;14.80;99.90
29777;DHT22;16677;52.224;7.484;2023-08-06T04:17:31;14.90;99.90
29777;DHT22;16677;52.224;7.484;2023-08-06T04:19:58;14.90;99.90
29777;DHT22;16677;52.224;7.484;2023-08-06T04:22:26;15.00;99.90
29777;DHT22;16677;52.224;7.484;2023-08-06T04:24:53;15.00;99.90
29777;DHT22;16677;52.224;7.484;2023-08-06T04:27:20;15.00;99.90
29777;DHT22;16677;52.224;7.484;2023-08-06T04:29:47;15.00;99.90
29777;DHT22;16677;52.224;7.484;2023-08-06T04:32:14;15.10;99.90
29777;DHT22;16677;52.224;7.484;2023-08-06T04:34:41;15.20;99.90
29777;DHT22;16677;52.224;7.484;2023-08-06T04:37:10;15.30;99.90
29777;DHT22;16677;52.224;7.484;2023-08-06T04:39:37;15.30;99.90
29777;DHT22;16677;52.224;7.484;2023-08-06T04:42:05;15.10;99.90
29777;DHT22;16677;52.224;7.484;2023-08-06T04:44:32;15.30;99.90
29777;DHT22;16677;52.224;7.484;2023-08-06T04:46:59;15.50;99.90
29777;DHT22;16677;52.224;7.484;2023-08-06T04:49:27;15.50;99.90
29777;DHT22;16677;52.224;7.484;2023-08-06T04:51:54;15.80;99.90
29777;DHT22;16677;52.224;7.484;2023-08-06T04:54:21;15.70;99.90
29777;DHT22;16677;52.224;7.484;2023-08-06T04:56:48;15.90;99.90
29777;DHT22;16677;52.224;7.484;2023-08-06T04:59:16;16.00;99.90
29777;DHT22;16677;52.224;7.484;2023-08-06T05:01:44;15.90;99.90
29777;DHT22;16677;52.224;7.484;2023-08-06T05:04:11;16.00;99.90
29777;DHT22;16677;52.224;7.484;2023-08-06T05:06:39;15.80;99.90
29777;DHT22;16677;52.224;7.484;2023-08-06T05:09:07;15.90;99.90
29777;DHT22;16677;52.224;7.484;2023-08-06T05:11:34;15.90;99.90
29777;DHT22;16677;52.224;7.484;2023-08-06T05:14:01;15.90;99.90
29777;DHT22;16677;52.224;7.484;2023-08-06T05:16:28;15.90;99.90
29777;DHT22;16677;52.224;7.484;2023-08-06T05:18:58;16.00;99.90
29777;DHT22;16677;52.224;7.484;2023-08-06T05:21:25;16.10;99.90
29777;DHT22;16677;52.224;7.484;2023-08-06T05:23:52;16.20;99.90
29777;DHT22;16677;52.224;7.484;2023-08-06T05:26:19;16.20;99.90
29777;DHT22;16677;52.224;7.484;2023-08-06T05:28:47;16.20;99.90
29777;DHT22;16677;52.224;7.484;2023-08-06T05:31:14;16.40;99.90
29777;DHT22;16677;52.224;7.484;2023-08-06T05:33:41;16.60;99.90
29777;DHT22;16677;52.224;7.484;2023-08-06T05:36:08;16.70;99.90
29777;DHT22;16677;52.224;7.484;2023-08-06T05:38:36;16.80;99.90
29777;DHT22;16677;52.224;7.484;2023-08-06T05:41:03;16.90;99.90
29777;DHT22;16677;52.224;7.484;2023-08-06T05:43:30;17.00;99.90
29777;DHT22;16677;52.224;7.484;2023-08-06T05:45:57;17.20;99.90
29777;DHT22;16677;52.224;7.484;2023-08-06T05:48:25;17.40;99.90
29777;DHT22;16677;52.224;7.484;2023-08-06T05:50:52;17.60;99.90
29777;DHT22;16677;52.224;7.484;2023-08-06T05:53:19;17.70;99.90
29777;DHT22;16677;52.224;7.484;2023-08-06T05:55:47;18.00;99.90
29777;DHT22;16677;52.224;7.484;2023-08-06T05:58:14;18.70;99.90
29777;DHT22;16677;52.224;7.484;2023-08-06T06:00:42;19.20;99.90
29777;DHT22;16677;52.224;7.484;2023-08-06T06:03:09;19.50;47.10
29777;DHT22;16677;52.224;7.484;2023-08-06T06:05:39;19.80;1.00
29777;DHT22;16677;52.224;7.484;2023-08-06T06:08:06;19.90;1.00
29777;DHT22;16677;52.224;7.484;2023-08-06T06:10:36;20.40;1.00
29777;DHT22;16677;52.224;7.484;2023-08-06T06:13:03;20.60;1.00
29777;DHT22;16677;52.224;7.484;2023-08-06T06:15:33;20.90;1.00
29777;DHT22;16677;52.224;7.484;2023-08-06T06:18:00;21.10;1.00
29777;DHT22;16677;52.224;7.484;2023-08-06T06:20:27;20.30;1.00
29777;DHT22;16677;52.224;7.484;2023-08-06T06:22:55;20.30;1.00
29777;DHT22;16677;52.224;7.484;2023-08-06T06:25:22;20.40;1.00
29777;DHT22;16677;52.224;7.484;2023-08-06T06:27:52;20.10;1.00
29777;DHT22;16677;52.224;7.484;2023-08-06T06:30:19;20.20;1.00
29777;DHT22;16677;52.224;7.484;2023-08-06T06:32:48;20.20;1.00
29777;DHT22;16677;52.224;7.484;2023-08-06T06:35:16;20.10;1.00
29777;DHT22;16677;52.224;7.484;2023-08-06T06:37:43;19.50;9.40
29777;DHT22;16677;52.224;7.484;2023-08-06T06:40:10;19.20;17.60
29777;DHT22;16677;52.224;7.484;2023-08-06T06:42:38;19.00;31.60
29777;DHT22;16677;52.224;7.484;2023-08-06T06:45:05;18.90;40.10
29777;DHT22;16677;52.224;7.484;2023-08-06T06:47:33;18.90;56.20
29777;DHT22;16677;52.224;7.484;2023-08-06T06:50:01;19.00;64.80
29777;DHT22;16677;52.224;7.484;2023-08-06T06:52:29;19.00;26.60
29777;DHT22;16677;52.224;7.484;2023-08-06T06:54:57;19.10;47.00
29777;DHT22;16677;52.224;7.484;2023-08-06T06:57:24;19.40;17.80
29777;DHT22;16677;52.224;7.484;2023-08-06T06:59:54;19.00;33.10
29777;DHT22;16677;52.224;7.484;2023-08-06T07:04:56;18.70;57.90
29777;DHT22;16677;52.224;7.484;2023-08-06T07:07:23;18.70;27.60
29777;DHT22;16677;52.224;7.484;2023-08-06T07:09:53;18.30;72.30
29777;DHT22;16677;52.224;7.484;2023-08-06T07:12:20;18.20;92.60
29777;DHT22;16677;52.224;7.484;2023-08-06T07:14:48;18.40;89.90
29777;DHT22;16677;52.224;7.484;2023-08-06T07:17:16;18.60;57.60
29777;DHT22;16677;52.224;7.484;2023-08-06T07:19:43;18.90;64.60
29777;DHT22;16677;52.224;7.484;2023-08-06T07:22:10;18.90;68.70
29777;DHT22;16677;52.224;7.484;2023-08-06T07:24:38;18.90;53.00
29777;DHT22;16677;52.224;7.484;2023-08-06T07:27:05;19.30;46.20
29777;DHT22;16677;52.224;7.484;2023-08-06T07:29:35;19.30;22.70
29777;DHT22;16677;52.224;7.484;2023-08-06T07:32:03;19.10;37.40
29777;DHT22;16677;52.224;7.484;2023-08-06T07:34:30;18.70;45.30
29777;DHT22;16677;52.224;7.484;2023-08-06T07:36:57;18.50;70.40
29777;DHT22;16677;52.224;7.484;2023-08-06T07:39:25;18.20;82.30
29777;DHT22;16677;52.224;7.484;2023-08-06T07:41:52;18.10;84.90
29777;DHT22;16677;52.224;7.484;2023-08-06T07:44:22;18.10;94.00
29777;DHT22;16677;52.224;7.484;2023-08-06T07:46:50;18.20;94.00
29777;DHT22;16677;52.224;7.484;2023-08-06T07:49:17;18.30;96.50
29777;DHT22;16677;52.224;7.484;2023-08-06T07:51:45;18.20;89.20
29777;DHT22;16677;52.224;7.484;2023-08-06T07:54:12;18.20;69.90
29777;DHT22;16677;52.224;7.484;2023-08-06T07:56:41;18.20;94.50
29777;DHT22;16677;52.224;7.484;2023-08-06T07:59:08;17.70;99.80
29777;DHT22;16677;52.224;7.484;2023-08-06T08:01:36;18.00;99.90
29777;DHT22;16677;52.224;7.484;2023-08-06T08:04:03;18.10;97.90
29777;DHT22;16677;52.224;7.484;2023-08-06T08:06:31;18.40;92.60
29777;DHT22;16677;52.224;7.484;2023-08-06T08:08:59;18.70;68.10
29777;DHT22;16677;52.224;7.484;2023-08-06T08:11:26;18.90;49.30
29777;DHT22;16677;52.224;7.484;2023-08-06T08:13:53;18.50;54.30
29777;DHT22;16677;52.224;7.484;2023-08-06T08:16:21;17.90;91.10
29777;DHT22;16677;52.224;7.484;2023-08-06T08:18:51;17.90;99.90
29777;DHT22;16677;52.224;7.484;2023-08-06T08:21:18;18.00;99.90
29777;DHT22;16677;52.224;7.484;2023-08-06T08:23:46;17.80;99.90
29777;DHT22;16677;52.224;7.484;2023-08-06T08:26:16;18.10;99.90
29777;DHT22;16677;52.224;7.484;2023-08-06T08:28:46;18.20;95.30
29777;DHT22;16677;52.224;7.484;2023-08-06T08:31:13;18.50;94.30
29777;DHT22;16677;52.224;7.484;2023-08-06T08:33:43;18.40;92.20
29777;DHT22;16677;52.224;7.484;2023-08-06T08:36:10;17.90;99.90
29777;DHT22;16677;52.224;7.484;2023-08-06T08:38:40;17.80;99.90
29777;DHT22;16677;52.224;7.484;2023-08-06T08:41:11;17.80;99.90
29777;DHT22;16677;52.224;7.484;2023-08-06T08:56:01;17.90;99.90
29777;DHT22;16677;52.224;7.484;2023-08-06T08:58:29;18.80;99.90
29777;DHT22;16677;52.224;7.484;2023-08-06T09:01:00;18.70;88.80
29777;DHT22;16677;52.224;7.484;2023-08-06T09:03:28;18.30;96.10
29777;DHT22;16677;52.224;7.484;2023-08-06T09:05:57;18.80;75.70
29777;DHT22;16677;52.224;7.484;2023-08-06T09:08:28;19.30;37.10
29777;DHT22;16677;52.224;7.484;2023-08-06T09:11:01;19.40;54.40
29777;DHT22;16677;52.224;7.484;2023-08-06T09:13:28;19.40;32.90
29777;DHT22;16677;52.224;7.484;2023-08-06T09:15:56;19.90;9.00
29777;DHT22;16677;52.224;7.484;2023-08-06T09:18:27;19.50;15.60
29777;DHT22;16677;52.224;7.484;2023-08-06T09:20:57;19.20;28.70
29777;DHT22;16677;52.224;7.484;2023-08-06T09:23:29;20.20;1.00
29777;DHT22;16677;52.224;7.484;2023-08-06T09:25:58;20.50;1.00
29777;DHT22;16677;52.224;7.484;2023-08-06T09:28:36;19.90;1.00
29777;DHT22;16677;52.224;7.484;2023-08-06T09:31:09;19.90;1.00
29777;DHT22;16677;52.224;7.484;2023-08-06T09:33:39;20.20;1.00
29777;DHT22;16677;52.224;7.484;2023-08-06T09:36:12;20.40;1.00
29777;DHT22;16677;52.224;7.484;2023-08-06T09:38:40;19.90;1.00
29777;DHT22;16677;52.224;7.484;2023-08-06T09:41:08;18.80;66.50
29777;DHT22;16677;52.224;7.484;2023-08-06T09:43:43;19.30;53.60
29777;DHT22;16677;52.224;7.484;2023-08-06T09:46:13;19.00;34.60
29777;DHT22;16677;52.224;7.484;2023-08-06T09:48:46;18.70;48.50
29777;DHT22;16677;52.224;7.484;2023-08-06T09:51:14;18.90;54.00
29777;DHT22;16677;52.224;7.484;2023-08-06T09:53:42;19.70;20.10
29777;DHT22;16677;52.224;7.484;2023-08-06T09:56:10;19.00;1.00
29777;DHT22;16677;52.224;7.484;2023-08-06T09:58:39;19.50;33.00
29777;DHT22;16677;52.224;7.484;2023-08-06T10:01:06;19.40;8.00
29777;DHT22;16677;52.224;7.484;2023-08-06T10:03:35;19.70;8.40
29777;DHT22;16677;52.224;7.484;2023-08-06T10:06:03;19.80;1.00
29777;DHT22;16677;52.224;7.484;2023-08-06T10:08:33;19.90;1.00
29777;DHT22;16677;52.224;7.484;2023-08-06T10:11:02;20.30;1.00
29777;DHT22;16677;52.224;7.484;2023-08-06T10:13:32;19.30;1.00
29777;DHT22;16677;52.224;7.484;2023-08-06T10:16:01;18.90;1.00
29777;DHT22;16677;52.224;7.484;2023-08-06T10:18:32;19.20;11.50
29777;DHT22;16677;52.224;7.484;2023-08-06T10:21:00;19.60;1.00
29777;DHT22;16677;52.224;7.484;2023-08-06T10:23:35;19.60;1.00
29777;DHT22;16677;52.224;7.484;2023-08-06T10:26:05;19.70;1.00
29777;DHT22;16677;52.224;7.484;2023-08-06T10:28:37;19.70;1.00
29777;DHT22;16677;52.224;7.484;2023-08-06T10:31:05;19.80;1.00
29777;DHT22;16677;52.224;7.484;2023-08-06T10:36:10;19.30;1.00
29777;DHT22;16677;52.224;7.484;2023-08-06T10:38:46;19.30;11.90
29777;DHT22;16677;52.224;7.484;2023-08-06T10:41:28;19.40;1.00
29777;DHT22;16677;52.224;7.484;2023-08-06T10:44:22;19.60;1.00
29777;DHT22;16677;52.224;7.484;2023-08-06T10:47:26;19.50;8.90
29777;DHT22;16677;52.224;7.484;2023-08-06T10:49:58;19.20;18.70
29777;DHT22;16677;52.224;7.484;2023-08-06T10:52:27;18.90;28.60
29777;DHT22;16677;52.224;7.484;2023-08-06T10:54:57;18.90;23.50
29777;DHT22;16677;52.224;7.484;2023-08-06T10:57:24;19.00;29.60
29777;DHT22;16677;52.224;7.484;2023-08-06T10:59:51;19.60;1.00
29777;DHT22;16677;52.224;7.484;2023-08-06T11:02:36;19.40;1.00
29777;DHT22;16677;52.224;7.484;2023-08-06T11:05:10;20.10;1.00
29777;DHT22;16677;52.224;7.484;2023-08-06T11:07:38;20.20;1.00
29777;DHT22;16677;52.224;7.484;2023-08-06T11:10:10;19.90;1.00
29777;DHT22;16677;52.224;7.484;2023-08-06T11:12:39;20.30;1.00
29777;DHT22;16677;52.224;7.484;2023-08-06T11:15:07;20.30;1.00
29777;DHT22;16677;52.224;7.484;2023-08-06T11:17:35;19.80;1.00
29777;DHT22;16677;52.224;7.484;2023-08-06T11:20:04;19.80;1.00
29777;DHT22;16677;52.224;7.484;2023-08-06T11:22:32;19.90;1.00
29777;DHT22;16677;52.224;7.484;2023-08-06T11:24:59;20.50;1.00
29777;DHT22;16677;52.224;7.484;2023-08-06T11:27:28;20.60;1.00
29777;DHT22;16677;52.224;7.484;2023-08-06T11:29:55;20.20;1.00
29777;DHT22;16677;52.224;7.484;2023-08-06T11:32:23;19.80;1.00
29777;DHT22;16677;52.224;7.484;2023-08-06T11:34:52;20.40;1.00
29777;DHT22;16677;52.224;7.484;2023-08-06T11:37:22;20.90;1.00
29777;DHT22;16677;52.224;7.484;2023-08-06T11:39:51;20.30;1.00
29777;DHT22;16677;52.224;7.484;2023-08-06T11:42:19;19.80;1.00
29777;DHT22;16677;52.224;7.484;2023-08-06T11:44:46;19.80;1.00
29777;DHT22;16677;52.224;7.484;2023-08-06T11:47:17;20.20;1.00
29777;DHT22;16677;52.224;7.484;2023-08-06T11:49:50;20.60;1.00
29777;DHT22;16677;52.224;7.484;2023-08-06T11:52:25;20.90;1.00
29777;DHT22;16677;52.224;7.484;2023-08-06T11:55:07;21.30;1.00
29777;DHT22;16677;52.224;7.484;2023-08-06T11:57:39;20.90;1.00
29777;DHT22;16677;52.224;7.484;2023-08-06T12:00:12;20.90;1.00
29777;DHT22;16677;52.224;7.484;2023-08-06T12:02:41;21.20;1.00
29777;DHT22;16677;52.224;7.484;2023-08-06T12:05:29;21.00;1.00
29777;DHT22;16677;52.224;7.484;2023-08-06T12:07:59;21.00;1.00
29777;DHT22;16677;52.224;7.484;2023-08-06T12:10:31;20.90;1.00
29777;DHT22;16677;52.224;7.484;2023-08-06T12:13:00;20.30;1.00
29777;DHT22;16677;52.224;7.484;2023-08-06T12:15:27;20.30;1.00
29777;DHT22;16677;52.224;7.484;2023-08-06T12:17:58;20.30;1.00
29777;DHT22;16677;52.224;7.484;2023-08-06T12:20:25;21.10;1.00
29777;DHT22;16677;52.224;7.484;2023-08-06T12:22:52;21.20;1.00
29777;DHT22;16677;52.224;7.484;2023-08-06T12:25:19;20.90;1.00
29777;DHT22;16677;52.224;7.484;2023-08-06T12:27:47;20.90;1.00
29777;DHT22;16677;52.224;7.484;2023-08-06T12:30:14;20.90;1.00
29777;DHT22;16677;52.224;7.484;2023-08-06T12:32:41;21.00;1.00
29777;DHT22;16677;52.224;7.484;2023-08-06T12:35:08;20.90;1.00
29777;DHT22;16677;52.224;7.484;2023-08-06T12:37:36;20.80;1.00
29777;DHT22;16677;52.224;7.484;2023-08-06T12:40:06;21.10;1.00
29777;DHT22;16677;52.224;7.484;2023-08-06T12:42:53;20.80;1.00
29777;DHT22;16677;52.224;7.484;2023-08-06T12:45:21;20.60;1.00
29777;DHT22;16677;52.224;7.484;2023-08-06T12:47:49;20.70;1.00
29777;DHT22;16677;52.224;7.484;2023-08-06T12:50:17;21.00;1.00
29777;DHT22;16677;52.224;7.484;2023-08-06T12:52:45;21.40;1.00
29777;DHT22;16677;52.224;7.484;2023-08-06T12:55:12;21.20;1.00
29777;DHT22;16677;52.224;7.484;2023-08-06T12:57:39;21.00;1.00
29777;DHT22;16677;52.224;7.484;2023-08-06T13:00:22;20.80;1.00
29777;DHT22;16677;52.224;7.484;2023-08-06T13:02:49;20.80;1.00
29777;DHT22;16677;52.224;7.484;2023-08-06T13:05:17;21.30;1.00
29777;DHT22;16677;52.224;7.484;2023-08-06T13:07:44;21.70;1.00
29777;DHT22;16677;52.224;7.484;2023-08-06T13:10:11;21.20;1.00
29777;DHT22;16677;52.224;7.484;2023-08-06T13:12:38;21.40;1.00
29777;DHT22;16677;52.224;7.484;2023-08-06T13:15:06;21.80;1.00
29777;DHT22;16677;52.224;7.484;2023-08-06T13:17:34;22.20;1.00
29777;DHT22;16677;52.224;7.484;2023-08-06T13:20:01;21.50;1.00
29777;DHT22;16677;52.224;7.484;2023-08-06T13:22:29;21.80;1.00
29777;DHT22;16677;52.224;7.484;2023-08-06T13:24:56;22.30;1.00
29777;DHT22;16677;52.224;7.484;2023-08-06T13:27:23;22.10;1.00
29777;DHT22;16677;52.224;7.484;2023-08-06T13:29:50;22.30;1.00
29777;DHT22;16677;52.224;7.484;2023-08-06T13:32:17;21.70;1.00
29777;DHT22;16677;52.224;7.484;2023-08-06T13:34:44;21.90;1.00
29777;DHT22;16677;52.224;7.484;2023-08-06T13:37:11;21.20;1.00
29777;DHT22;16677;52.224;7.484;2023-08-06T13:39:39;21.50;1.00
29777;DHT22;16677;52.224;7.484;2023-08-06T13:42:06;21.70;1.00
29777;DHT22;16677;52.224;7.484;2023-08-06T13:44:33;21.20;1.00
29777;DHT22;16677;52.224;7.484;2023-08-06T13:47:02;20.70;1.00
29777;DHT22;16677;52.224;7.484;2023-08-06T13:49:30;20.60;1.00
29777;DHT22;16677;52.224;7.484;2023-08-06T13:51:59;20.40;1.00
29777;DHT22;16677;52.224;7.484;2023-08-06T13:54:46;20.40;1.00
29777;DHT22;16677;52.224;7.484;2023-08-06T13:57:13;20.90;1.00
29777;DHT22;16677;52.224;7.484;2023-08-06T13:59:41;21.30;1.00
29777;DHT22;16677;52.224;7.484;2023-08-06T14:02:10;21.50;1.00
29777;DHT22;16677;52.224;7.484;2023-08-06T14:04:38;20.80;1.00
29777;DHT22;16677;52.224;7.484;2023-08-06T14:07:06;20.60;1.00
29777;DHT22;16677;52.224;7.484;2023-08-06T14:09:33;20.20;1.00
29777;DHT22;16677;52.224;7.484;2023-08-06T14:12:01;20.00;1.00
29777;DHT22;16677;52.224;7.484;2023-08-06T14:14:30;20.10;1.00
29777;DHT22;16677;52.224;7.484;2023-08-06T14:17:00;19.80;1.00
29777;DHT22;16677;52.224;7.484;2023-08-06T14:19:28;19.70;1.00
29777;DHT22;16677;52.224;7.484;2023-08-06T14:21:56;19.60;1.00
29777;DHT22;16677;52.224;7.484;2023-08-06T14:24:23;19.80;1.00
29777;DHT22;16677;52.224;7.484;2023-08-06T14:26:50;19.50;1.00
29777;DHT22;16677;52.224;7.484;2023-08-06T14:29:19;19.70;1.00
29777;DHT22;16677;52.224;7.484;2023-08-06T14:31:46;19.80;1.00
29777;DHT22;16677;52.224;7.484;2023-08-06T14:34:13;19.60;1.00
29777;DHT22;16677;52.224;7.484;2023-08-06T14:36:41;19.50;1.00
29777;DHT22;16677;52.224;7.484;2023-08-06T14:39:08;19.60;1.00
29777;DHT22;16677;52.224;7.484;2023-08-06T14:41:35;19.50;1.00
29777;DHT22;16677;52.224;7.484;2023-08-06T14:44:02;19.50;1.00
29777;DHT22;16677;52.224;7.484;2023-08-06T14:46:30;19.60;1.00
29777;DHT22;16677;52.224;7.484;2023-08-06T14:48:57;19.70;1.00
29777;DHT22;16677;52.224;7.484;2023-08-06T14:51:24;19.60;1.00
29777;DHT22;16677;52.224;7.484;2023-08-06T14:53:51;19.70;1.00
29777;DHT22;16677;52.224;7.484;2023-08-06T14:56:18;19.80;1.00
29777;DHT22;16677;52.224;7.484;2023-08-06T14:58:46;19.90;1.00
29777;DHT22;16677;52.224;7.484;2023-08-06T15:01:13;19.80;1.00
29777;DHT22;16677;52.224;7.484;2023-08-06T15:03:40;19.60;1.00
29777;DHT22;16677;52.224;7.484;2023-08-06T15:06:07;18.90;1.00
29777;DHT22;16677;52.224;7.484;2023-08-06T15:08:34;18.80;1.00
29777;DHT22;16677;52.224;7.484;2023-08-06T15:11:01;18.40;99.90
29777;DHT22;16677;52.224;7.484;2023-08-06T15:13:29;18.40;99.90
29777;DHT22;16677;52.224;7.484;2023-08-06T15:15:58;18.20;99.90
29777;DHT22;16677;52.224;7.484;2023-08-06T15:18:25;18.00;99.90
29777;DHT22;16677;52.224;7.484;2023-08-06T15:20:52;17.80;99.90
29777;DHT22;16677;52.224;7.484;2023-08-06T15:23:20;17.70;99.90
29777;DHT22;16677;52.224;7.484;2023-08-06T15:25:47;17.70;99.90
29777;DHT22;16677;52.224;7.484;2023-08-06T15:28:14;17.80;99.90
29777;DHT22;16677;52.224;7.484;2023-08-06T15:30:49;17.60;99.90
29777;DHT22;16677;52.224;7.484;2023-08-06T15:33:18;17.40;99.90
29777;DHT22;16677;52.224;7.484;2023-08-06T15:35:46;17.20;99.90
29777;DHT22;16677;52.224;7.484;2023-08-06T15:38:13;17.00;99.90
29777;DHT22;16677;52.224;7.484;2023-08-06T15:40:40;17.00;99.90
29777;DHT22;16677;52.224;7.484;2023-08-06T15:43:07;16.80;99.90
29777;DHT22;16677;52.224;7.484;2023-08-06T15:45:34;16.90;99.90
29777;DHT22;16677;52.224;7.484;2023-08-06T15:48:02;16.80;99.90
29777;DHT22;16677;52.224;7.484;2023-08-06T15:50:29;16.80;99.90
29777;DHT22;16677;52.224;7.484;2023-08-06T15:52:56;16.60;99.90
29777;DHT22;16677;52.224;7.484;2023-08-06T15:55:23;16.70;99.90
29777;DHT22;16677;52.224;7.484;2023-08-06T15:57:51;16.70;99.90
29777;DHT22;16677;52.224;7.484;2023-08-06T16:00:19;16.60;99.90
29777;DHT22;16677;52.224;7.484;2023-08-06T16:02:46;16.70;99.90
29777;DHT22;16677;52.224;7.484;2023-08-06T16:05:13;16.80;99.90
29777;DHT22;16677;52.224;7.484;2023-08-06T16:07:41;16.70;99.90
29777;DHT22;16677;52.224;7.484;2023-08-06T16:10:08;16.60;99.90
29777;DHT22;16677;52.224;7.484;2023-08-06T16:12:36;16.70;99.90